Accueil
METAR-TAF:

METAR-TAF

Aéroports :

Aéroport de Bruxelles. Zaventem

Bruxelles, Belgique

latitude: 50-54N, longitude: 004-32E, altitude: 55 m

Observation

Le bulletin a été fait il y a 22 minutes, à 10:50 UTC
Vent 12 kt de nord/nord-est
Température 12°C
Humidité 50%
Pression 1023 hPa
Visibilité 10 km ou plus
pas de nuages en-dessous de 1500 mètres et pas de cumulonimbus.

METAR: EBBR 281050Z 03012KT CAVOK 12/02 Q1023 NOSIG

Heure: 12:12 (11:12 UTC)

Prévision

Le bulletin a été fait il y a 6 heures et 2 minutes, à 05:10 UTC
Prévision valable du 28 à 06 UTC au 29 à 12 UTC
Vent 10 kt de nord/nord-est
Visibilité 10 km ou plus
pas de nuages en-dessous de 1500 mètres et pas de cumulonimbus.

TAF: EBBR 280510Z 2806/2912 03010KT CAVOK

Observations et prévisions météorologiques de plus de 4000 aéroports (messages METAR et TAF).

Les stations disponibles sont représentées par des disques jaunes et rouges sur la carte.

Passer la souris dessus pour voir le nom de la station.

Cliquer dessus pour voir les observations et prévisions météorologiques.

Pour changer de carte: cliquez sur les boutons verts avec une croix noire pour zoomer, sur le bouton vert avec un tiret pour effectuer un zoom arrière, ou sur les flèches vertes pour les cartes adjacentes.


METAR-TAF: